Time;durP1;ratioP1;P1;durP2;ratioP2;P2;SDS_P1;SDS_P2;PMS_P1;PMS_P2;Temp;Humidity;BMP_temperature;BMP_pressure;BME280_temperature;BME280_humidity;BME280_pressure;Samples;Min_cycle;Max_cycle;Signal;HPM_P1;HPM_P2
2022/07/01 00:01:45;;;;;;;12.43;11.23;;;;;;;14.94;100.00;101436.88;5213632;28;20032;-68
2022/07/01 00:04:16;;;;;;;12.38;11.07;;;;;;;14.76;100.00;101435.94;5211161;28;20037;-69
2022/07/01 00:06:48;;;;;;;12.10;11.00;;;;;;;14.79;100.00;101435.66;5213302;28;20033;-68
2022/07/01 00:09:20;;;;;;;12.40;11.18;;;;;;;14.71;100.00;101430.28;5212628;28;20022;-69
2022/07/01 00:11:52;;;;;;;12.57;11.27;;;;;;;14.69;100.00;101433.03;5213584;28;20072;-67
2022/07/01 00:14:23;;;;;;;12.40;10.77;;;;;;;14.69;100.00;101425.13;5215242;28;20025;-70
2022/07/01 00:16:54;;;;;;;12.32;11.15;;;;;;;14.64;100.00;101430.00;5218017;28;20058;-67
2022/07/01 00:19:26;;;;;;;12.80;11.60;;;;;;;14.57;100.00;101421.84;5217535;28;20030;-70
2022/07/01 00:21:57;;;;;;;13.25;11.95;;;;;;;14.57;100.00;101418.38;5214901;28;20033;-69
2022/07/01 00:24:28;;;;;;;13.23;11.82;;;;;;;14.58;100.00;101415.59;5217068;28;20049;-69
2022/07/01 00:27:00;;;;;;;12.45;11.25;;;;;;;14.58;100.00;101415.59;5217253;28;20096;-68
2022/07/01 00:29:33;;;;;;;13.13;11.80;;;;;;;14.50;100.00;101407.53;5217675;28;20018;-68
2022/07/01 00:32:04;;;;;;;12.27;11.07;;;;;;;14.62;100.00;101418.75;5216706;28;20033;-68
2022/07/01 00:34:36;;;;;;;13.40;12.05;;;;;;;14.56;100.00;101412.25;5215272;28;20092;-69
2022/07/01 00:37:07;;;;;;;12.93;11.68;;;;;;;14.56;100.00;101399.09;5216744;28;20148;-67
2022/07/01 00:39:38;;;;;;;15.18;12.90;;;;;;;14.57;100.00;101392.81;5217651;28;20116;-68
2022/07/01 00:42:10;;;;;;;15.32;12.68;;;;;;;14.64;100.00;101389.63;5217605;28;20109;-70
2022/07/01 00:44:41;;;;;;;14.73;13.27;;;;;;;14.53;100.00;101390.63;5215677;28;20529;-68
2022/07/01 00:47:13;;;;;;;15.02;11.98;;;;;;;14.59;100.00;101395.34;5215761;28;20832;-69
2022/07/01 00:49:44;;;;;;;14.13;12.63;;;;;;;14.57;100.00;101398.09;5217680;28;20029;-68
2022/07/01 00:52:16;;;;;;;13.88;12.57;;;;;;;14.53;100.00;101391.44;5215017;28;20033;-68
2022/07/01 00:54:47;;;;;;;14.20;12.68;;;;;;;14.56;100.00;101392.97;5216230;28;20030;-67
2022/07/01 00:57:18;;;;;;;13.68;12.20;;;;;;;14.57;100.00;101403.38;5215140;28;20479;-69
2022/07/01 00:59:50;;;;;;;14.75;12.10;;;;;;;14.57;100.00;101403.38;5215346;28;20060;-68
2022/07/01 01:02:21;;;;;;;14.60;12.32;;;;;;;14.53;100.00;101401.16;5215903;28;20033;-68
2022/07/01 01:04:53;;;;;;;14.55;13.07;;;;;;;14.50;100.00;101397.00;5216927;28;20026;-68
2022/07/01 01:07:25;;;;;;;14.50;12.77;;;;;;;14.57;100.00;101415.72;5216085;28;20033;-68
2022/07/01 01:09:56;;;;;;;14.73;13.23;;;;;;;14.63;100.00;101416.97;5214530;28;20064;-68
2022/07/01 01:12:28;;;;;;;14.73;13.18;;;;;;;14.62;100.00;101408.22;5216792;28;20112;-68
2022/07/01 01:15:00;;;;;;;15.70;13.60;;;;;;;14.61;100.00;101422.38;5214631;28;20084;-68
2022/07/01 01:17:31;;;;;;;16.63;14.30;;;;;;;14.64;100.00;101427.38;5212641;28;20041;-70
2022/07/01 01:20:03;;;;;;;16.80;14.55;;;;;;;14.65;100.00;101442.22;5214775;28;20040;-67
2022/07/01 01:22:35;;;;;;;16.92;14.55;;;;;;;14.69;100.00;101442.75;5213664;28;20029;-68
2022/07/01 01:25:06;;;;;;;19.45;15.00;;;;;;;14.66;100.00;101459.72;5214407;28;20037;-68
2022/07/01 01:27:38;;;;;;;18.40;15.23;;;;;;;14.65;100.00;101452.75;5215618;28;20030;-69
2022/07/01 01:30:11;;;;;;;17.20;14.27;;;;;;;14.71;100.00;101451.38;5214098;28;20026;-68
2022/07/01 01:32:43;;;;;;;17.27;14.45;;;;;;;14.71;100.00;101456.66;5214416;28;20117;-67
2022/07/01 01:35:14;;;;;;;17.60;14.20;;;;;;;14.72;100.00;101453.88;5216255;28;20112;-68
2022/07/01 01:37:46;;;;;;;19.38;15.65;;;;;;;14.72;100.00;101453.03;5215719;28;20518;-67
2022/07/01 01:40:18;;;;;;;17.37;14.73;;;;;;;14.70;100.00;101440.00;5230163;28;20084;-67
2022/07/01 01:42:49;;;;;;;16.88;15.02;;;;;;;14.71;100.00;101446.94;5214974;28;20034;-68
2022/07/01 01:45:20;;;;;;;18.50;14.73;;;;;;;14.79;100.00;101439.13;5215834;28;20073;-69
2022/07/01 01:47:51;;;;;;;19.00;15.60;;;;;;;14.77;100.00;101437.59;5214911;28;20175;-68
2022/07/01 01:50:23;;;;;;;20.45;15.63;;;;;;;14.77;100.00;101433.19;5216421;28;20079;-67
2022/07/01 01:52:54;;;;;;;18.25;15.63;;;;;;;14.76;100.00;101438.59;5215112;28;20026;-70
2022/07/01 01:55:25;;;;;;;20.55;16.33;;;;;;;14.74;100.00;101436.09;5215297;28;20041;-68
2022/07/01 01:57:56;;;;;;;19.20;16.05;;;;;;;14.75;100.00;101437.75;5213098;28;20083;-69
2022/07/01 02:00:28;;;;;;;24.95;16.98;;;;;;;14.80;100.00;101432.06;5213200;28;20030;-68
2022/07/01 02:02:59;;;;;;;19.25;14.95;;;;;;;14.79;100.00;101433.88;5214331;28;20371;-68
2022/07/01 02:05:31;;;;;;;20.08;15.88;;;;;;;14.80;100.00;101451.34;5214622;28;20030;-69
2022/07/01 02:08:04;;;;;;;20.20;15.43;;;;;;;14.82;100.00;101456.50;5215233;28;20087;-68
2022/07/01 02:10:35;;;;;;;22.47;17.10;;;;;;;14.80;100.00;101447.88;5214420;28;20088;-68
2022/07/01 02:13:06;;;;;;;24.67;17.98;;;;;;;14.79;100.00;101456.78;5214114;28;20262;-68
2022/07/01 02:15:39;;;;;;;18.27;16.10;;;;;;;14.81;100.00;101455.66;5215038;28;20021;-68
2022/07/01 02:18:10;;;;;;;19.40;16.40;;;;;;;14.81;100.00;101468.84;5214687;28;20037;-69
2022/07/01 02:20:42;;;;;;;20.52;16.05;;;;;;;14.82;100.00;101467.88;5213905;28;20033;-68
2022/07/01 02:23:13;;;;;;;17.33;15.50;;;;;;;14.72;100.00;101476.78;5213189;28;20025;-67
2022/07/01 02:25:46;;;;;;;18.63;15.38;;;;;;;14.70;100.00;101481.34;5215182;28;20091;-70
2022/07/01 02:28:17;;;;;;;20.33;16.33;;;;;;;14.75;100.00;101490.50;5213567;28;20080;-68
2022/07/01 02:30:48;;;;;;;19.23;15.90;;;;;;;14.73;100.00;101497.72;5214427;28;20030;-68
2022/07/01 02:33:19;;;;;;;18.60;16.05;;;;;;;14.79;100.00;101478.69;5214634;28;20394;-68
2022/07/01 02:35:51;;;;;;;21.42;16.85;;;;;;;14.76;100.00;101442.06;5210738;28;20026;-67
2022/07/01 02:38:22;;;;;;;18.17;16.08;;;;;;;14.73;100.00;101434.41;5212468;28;20045;-68
2022/07/01 02:40:53;;;;;;;21.13;16.35;;;;;;;14.77;100.00;101438.47;5214416;28;20442;-67
2022/07/01 02:43:25;;;;;;;18.65;16.50;;;;;;;14.76;100.00;101459.69;5214078;28;20109;-69
2022/07/01 02:45:59;;;;;;;20.55;16.63;;;;;;;14.76;100.00;101444.69;5214694;28;20033;-68
2022/07/01 02:48:30;;;;;;;21.00;15.73;;;;;;;14.76;100.00;101470.25;5214619;28;20429;-68
2022/07/01 02:51:01;;;;;;;21.63;16.38;;;;;;;14.74;100.00;101482.75;5211179;28;20026;-67
2022/07/01 02:53:32;;;;;;;18.50;14.93;;;;;;;14.80;100.00;101483.00;5214491;28;20083;-68
2022/07/01 02:56:04;;;;;;;21.92;16.98;;;;;;;14.75;100.00;101477.31;5214178;28;20022;-68
2022/07/01 02:58:35;;;;;;;21.45;17.30;;;;;;;14.75;100.00;101487.06;5212390;28;20056;-68
2022/07/01 03:01:06;;;;;;;19.13;16.33;;;;;;;14.77;100.00;101485.09;5212836;28;20105;-68
2022/07/01 03:03:38;;;;;;;23.13;18.50;;;;;;;14.72;100.00;101480.25;5213099;28;20033;-68
2022/07/01 03:06:09;;;;;;;22.95;18.58;;;;;;;14.75;100.00;101473.88;5213989;28;20064;-71
2022/07/01 03:08:40;;;;;;;23.75;18.65;;;;;;;14.75;100.00;101481.78;5214111;28;20037;-68
2022/07/01 03:11:11;;;;;;;22.77;19.63;;;;;;;14.73;100.00;101478.44;5212976;28;20028;-67
2022/07/01 03:13:43;;;;;;;26.65;19.98;;;;;;;14.70;100.00;101476.94;5212214;28;20033;-68
2022/07/01 03:16:14;;;;;;;28.48;20.02;;;;;;;14.70;100.00;101478.72;5213188;28;20076;-68
2022/07/01 03:18:46;;;;;;;23.38;20.63;;;;;;;14.69;100.00;101485.78;5213954;28;20038;-68
2022/07/01 03:21:17;;;;;;;25.45;20.08;;;;;;;14.73;100.00;101487.19;5214041;28;20072;-67
2022/07/01 03:23:48;;;;;;;24.83;20.13;;;;;;;14.66;100.00;101470.28;5213467;28;20069;-68
2022/07/01 03:26:19;;;;;;;26.30;19.75;;;;;;;14.68;100.00;101475.41;5214388;28;20029;-67
2022/07/01 03:28:51;;;;;;;24.98;20.05;;;;;;;14.62;100.00;101474.13;5213308;28;20033;-68
2022/07/01 03:31:22;;;;;;;25.20;19.63;;;;;;;14.74;100.00;101480.94;5213319;28;20052;-70
2022/07/01 03:33:53;;;;;;;25.42;20.65;;;;;;;14.74;100.00;101493.31;5213697;28;20036;-68
2022/07/01 03:36:25;;;;;;;22.77;20.35;;;;;;;14.68;100.00;101501.78;5212595;28;20120;-67
2022/07/01 03:38:56;;;;;;;23.55;20.90;;;;;;;14.67;100.00;101508.84;5211064;28;20065;-68
2022/07/01 03:41:28;;;;;;;25.38;21.42;;;;;;;14.63;100.00;101515.38;5213019;28;20029;-67
2022/07/01 03:43:59;;;;;;;27.60;22.02;;;;;;;14.62;100.00;101518.97;5214043;28;20025;-67
2022/07/01 03:46:31;;;;;;;27.40;23.05;;;;;;;14.53;100.00;101518.00;5214595;28;20379;-68
2022/07/01 03:49:03;;;;;;;32.43;22.23;;;;;;;14.55;100.00;101524.00;5212026;28;20030;-68
2022/07/01 03:51:35;;;;;;;24.17;21.60;;;;;;;14.54;100.00;101532.03;5212543;28;20390;-68
2022/07/01 03:57:01;;;;;;;27.10;22.17;;;;;;;14.58;100.00;101539.53;5213763;28;20049;-69
2022/07/01 03:59:37;;;;;;;26.08;22.27;;;;;;;14.51;100.00;101537.59;5214629;28;20376;-68
2022/07/01 04:02:09;;;;;;;26.38;23.58;;;;;;;14.50;100.00;101555.19;5209739;28;20017;-68
2022/07/01 04:04:40;;;;;;;30.65;25.50;;;;;;;14.49;100.00;101548.28;5212649;28;20045;-69
2022/07/01 04:07:11;;;;;;;28.42;25.38;;;;;;;14.55;100.00;101547.72;5211555;28;20025;-69
2022/07/01 04:09:43;;;;;;;31.65;26.85;;;;;;;14.52;100.00;101552.44;5211757;28;20022;-68
2022/07/01 04:12:14;;;;;;;31.63;26.30;;;;;;;14.55;100.00;101554.81;5214275;28;20052;-68
2022/07/01 04:14:45;;;;;;;32.95;27.75;;;;;;;14.57;100.00;101543.13;5213151;28;20032;-70
2022/07/01 04:17:17;;;;;;;31.80;27.83;;;;;;;14.56;100.00;101549.38;5213747;28;20026;-71
2022/07/01 04:19:48;;;;;;;32.22;24.63;;;;;;;14.53;100.00;101554.94;5212788;28;20029;-68
2022/07/01 04:22:37;;;;;;;28.88;23.58;;;;;;;14.55;100.00;101546.91;5212633;28;20036;-68
2022/07/01 04:25:09;;;;;;;26.38;22.95;;;;;;;14.53;100.00;101543.56;5212424;28;20068;-68
2022/07/01 04:27:40;;;;;;;24.38;21.73;;;;;;;14.57;100.00;101543.13;5212559;28;20080;-68
2022/07/01 04:30:12;;;;;;;22.63;20.05;;;;;;;14.71;100.00;101541.06;5214212;28;20014;-69
2022/07/01 04:32:44;;;;;;;22.93;19.13;;;;;;;14.67;100.00;101550.22;5212536;28;20049;-68
2022/07/01 04:35:15;;;;;;;21.52;18.45;;;;;;;14.67;100.00;101555.50;5212188;28;20786;-68
2022/07/01 04:37:46;;;;;;;20.88;17.77;;;;;;;14.65;100.00;101554.78;5212339;28;21060;-69
2022/07/01 04:40:18;;;;;;;20.23;16.77;;;;;;;14.70;100.00;101560.47;5213715;28;20486;-68
2022/07/01 04:42:49;;;;;;;19.90;16.42;;;;;;;14.73;100.00;101563.66;5214168;28;20391;-68
2022/07/01 04:45:20;;;;;;;20.63;16.10;;;;;;;14.69;100.00;101557.00;5213692;28;20037;-70
2022/07/01 04:47:51;;;;;;;18.50;16.02;;;;;;;14.69;100.00;101561.44;5210104;28;20026;-68
2022/07/01 04:50:23;;;;;;;17.25;15.38;;;;;;;14.68;100.00;101563.25;5213435;28;20026;-69
2022/07/01 04:52:54;;;;;;;17.13;14.55;;;;;;;14.70;100.00;101545.50;5212408;28;20033;-69
2022/07/01 04:55:25;;;;;;;18.88;14.65;;;;;;;14.69;100.00;101559.63;5212240;28;20084;-68
2022/07/01 04:57:57;;;;;;;19.85;14.27;;;;;;;14.68;100.00;101557.16;5210743;28;20090;-69
2022/07/01 05:00:29;;;;;;;14.63;13.05;;;;;;;14.70;100.00;101545.50;5212449;28;20088;-69
2022/07/01 05:03:01;;;;;;;17.90;13.95;;;;;;;14.73;100.00;101547.84;5215305;28;20105;-69
2022/07/01 05:05:32;;;;;;;17.13;12.55;;;;;;;14.83;100.00;101550.47;5215892;28;20535;-69
2022/07/01 05:08:03;;;;;;;13.65;12.18;;;;;;;14.81;100.00;101561.19;5216414;28;20061;-69
2022/07/01 05:10:35;;;;;;;14.85;13.25;;;;;;;14.85;100.00;101569.66;5214140;28;20076;-69
2022/07/01 05:13:07;;;;;;;15.43;12.32;;;;;;;14.79;100.00;101568.41;5212421;28;20957;-68
2022/07/01 05:15:38;;;;;;;14.43;12.15;;;;;;;14.84;100.00;101571.44;5217787;28;20026;-69
2022/07/01 05:23:49;;;;;;;13.85;12.07;;;;;;;14.92;100.00;101572.53;5216241;28;20038;-68
2022/07/01 05:26:21;;;;;;;15.93;11.75;;;;;;;14.94;100.00;101567.97;5216852;28;20034;-69
2022/07/01 05:28:53;;;;;;;14.85;11.93;;;;;;;14.98;100.00;101570.19;5215448;28;20028;-68
2022/07/01 05:31:24;;;;;;;15.50;12.05;;;;;;;14.98;100.00;101574.63;5213946;28;20045;-70
2022/07/01 05:33:55;;;;;;;15.05;11.90;;;;;;;14.98;100.00;101569.34;5213302;28;20014;-70
2022/07/01 05:36:27;;;;;;;14.35;12.00;;;;;;;14.97;100.00;101570.34;5215324;28;20096;-69
2022/07/01 05:38:58;;;;;;;13.23;11.85;;;;;;;14.99;100.00;101569.19;5359701;23;20042;-69
2022/07/01 05:41:29;;;;;;;18.65;12.43;;;;;;;15.05;100.00;101578.38;5210892;28;20037;-69
2022/07/01 05:44:01;;;;;;;13.07;11.68;;;;;;;15.09;100.00;101569.19;5215448;28;20513;-69
2022/07/01 05:46:32;;;;;;;13.95;12.38;;;;;;;15.08;100.00;101575.47;5214016;28;20073;-69
2022/07/01 05:49:04;;;;;;;13.90;11.65;;;;;;;15.09;100.00;101577.94;5211880;28;20487;-69
2022/07/01 05:51:35;;;;;;;17.05;11.73;;;;;;;15.06;100.00;101566.84;5216451;28;20391;-68
2022/07/01 05:54:06;;;;;;;15.75;12.25;;;;;;;15.12;100.00;101570.72;5216812;28;20506;-69
2022/07/01 05:56:37;;;;;;;16.00;11.60;;;;;;;15.16;100.00;101583.50;5214986;28;20030;-69
2022/07/01 05:59:09;;;;;;;14.55;12.70;;;;;;;15.27;100.00;101579.88;5215555;28;20108;-70
2022/07/01 06:01:40;;;;;;;17.15;12.38;;;;;;;15.35;100.00;101582.63;5215373;28;20034;-69
2022/07/01 06:04:11;;;;;;;15.70;12.70;;;;;;;15.42;100.00;101577.56;5215627;28;20018;-66
2022/07/01 06:06:43;;;;;;;14.25;12.75;;;;;;;15.39;100.00;101575.25;5214901;28;20061;-69
2022/07/01 06:09:14;;;;;;;14.68;12.32;;;;;;;15.48;100.00;101575.19;5215498;28;20026;-69
2022/07/01 06:11:45;;;;;;;14.30;12.23;;;;;;;15.37;100.00;101575.38;5215517;28;20025;-70
2022/07/01 06:14:17;;;;;;;14.30;11.68;;;;;;;15.32;100.00;101583.72;5215658;28;20033;-70
2022/07/01 06:16:48;;;;;;;14.98;11.95;;;;;;;15.31;100.00;101586.53;5211568;28;20047;-68
2022/07/01 06:19:20;;;;;;;13.10;10.98;;;;;;;15.30;100.00;101583.06;5210712;28;20463;-70
2022/07/01 06:21:51;;;;;;;17.35;11.82;;;;;;;15.41;100.00;101584.66;5215784;28;20029;-69
2022/07/01 06:24:23;;;;;;;13.77;11.48;;;;;;;15.44;100.00;101576.47;5214388;28;20030;-69
2022/07/01 06:26:55;;;;;;;16.98;11.88;;;;;;;15.42;100.00;101582.84;5213099;28;20045;-69
2022/07/01 06:29:30;;;;;;;13.80;10.52;;;;;;;15.38;100.00;101584.97;5209104;28;20030;-68
2022/07/01 06:32:02;;;;;;;13.05;9.88;;;;;;;15.35;100.00;101590.53;5215415;28;20080;-68
2022/07/01 06:34:34;;;;;;;11.05;9.85;;;;;;;15.38;100.00;101578.84;5214812;28;20038;-68
2022/07/01 06:37:05;;;;;;;13.43;10.02;;;;;;;15.41;100.00;101581.19;5214283;28;20121;-68
2022/07/01 06:39:37;;;;;;;13.55;9.77;;;;;;;15.52;100.00;101573.94;5214357;28;20049;-66
2022/07/01 06:42:08;;;;;;;13.77;9.30;;;;;;;15.64;100.00;101574.56;5213396;28;20029;-68
2022/07/01 06:44:39;;;;;;;10.63;9.23;;;;;;;15.71;100.00;101575.69;5212087;28;20176;-68
2022/07/01 06:47:11;;;;;;;13.35;9.48;;;;;;;15.86;100.00;101576.03;5214809;28;20034;-65
2022/07/01 06:49:42;;;;;;;11.50;9.02;;;;;;;15.91;100.00;101572.97;5214395;28;20021;-65
2022/07/01 06:52:14;;;;;;;10.70;8.68;;;;;;;16.04;100.00;101571.63;5212668;28;20040;-67
2022/07/01 06:54:45;;;;;;;11.45;8.25;;;;;;;16.09;100.00;101570.34;5215056;28;20490;-67
2022/07/01 06:57:16;;;;;;;9.35;7.75;;;;;;;16.12;100.00;101570.91;5215441;28;20025;-66
2022/07/01 06:59:49;;;;;;;9.95;7.93;;;;;;;16.23;100.00;101570.69;5213701;28;20483;-67
2022/07/01 07:02:20;;;;;;;9.90;7.68;;;;;;;16.36;100.00;101566.84;5213380;28;20037;-65
2022/07/01 07:04:57;;;;;;;10.55;7.63;;;;;;;16.53;100.00;101572.16;5213875;28;20414;-66
2022/07/01 07:07:28;;;;;;;12.90;7.55;;;;;;;16.74;100.00;101571.03;5213867;28;20044;-67
2022/07/01 07:09:59;;;;;;;8.20;6.18;;;;;;;16.81;100.00;101579.19;5215007;28;20026;-68
2022/07/01 07:12:31;;;;;;;8.73;4.90;;;;;;;16.86;100.00;101584.84;5213315;28;20072;-68
2022/07/01 07:15:02;;;;;;;7.13;5.10;;;;;;;17.01;100.00;101600.03;5215008;28;20045;-67
2022/07/01 07:17:34;;;;;;;7.18;4.30;;;;;;;17.05;100.00;101608.53;5214697;28;20494;-68
2022/07/01 07:20:06;;;;;;;8.45;4.35;;;;;;;16.99;100.00;101611.75;5212749;28;20091;-68
2022/07/01 07:22:37;;;;;;;12.93;4.70;;;;;;;16.96;100.00;101612.06;5213918;28;20018;-68
2022/07/01 07:25:08;;;;;;;7.90;3.35;;;;;;;16.95;100.00;101608.59;5215031;28;20053;-66
2022/07/01 07:27:40;;;;;;;6.25;2.95;;;;;;;16.96;100.00;101609.41;5211839;28;20041;-68
2022/07/01 07:30:12;;;;;;;9.82;3.30;;;;;;;16.99;100.00;101606.47;5215334;28;20030;-66
2022/07/01 07:32:44;;;;;;;7.78;2.83;;;;;;;17.04;100.00;101604.19;5212851;28;20164;-68
2022/07/01 07:35:15;;;;;;;7.32;2.45;;;;;;;16.97;100.00;101613.72;5212287;28;20100;-67
2022/07/01 07:37:47;;;;;;;6.05;2.60;;;;;;;17.01;100.00;101599.22;5213211;28;20026;-68
2022/07/01 07:40:18;;;;;;;4.88;2.10;;;;;;;17.03;100.00;101606.00;5214734;28;20041;-68
2022/07/01 07:42:50;;;;;;;4.60;2.50;;;;;;;16.96;100.00;101607.59;5214003;28;20111;-68
2022/07/01 07:45:21;;;;;;;6.80;2.80;;;;;;;16.88;100.00;101607.53;5212988;28;20033;-68
2022/07/01 07:47:54;;;;;;;6.57;2.20;;;;;;;17.01;100.00;101610.63;5210292;28;21274;-69
2022/07/01 07:50:26;;;;;;;;;;;;;;;17.77;100.00;101609.16;5213497;28;20026;-67
2022/07/01 07:52:57;;;;;;;3.20;1.50;;;;;;;17.60;100.00;101613.50;5212160;28;19918;-69
2022/07/01 07:55:29;;;;;;;5.72;1.65;;;;;;;17.69;100.00;101617.88;5208686;28;20030;-65
2022/07/01 07:58:00;;;;;;;5.80;1.65;;;;;;;17.87;100.00;101622.28;5202459;28;20025;-68
2022/07/01 08:00:32;;;;;;;3.22;1.27;;;;;;;17.86;100.00;101631.22;5206960;28;20088;-68
2022/07/01 08:03:03;;;;;;;4.80;1.55;;;;;;;17.89;100.00;101620.31;5212196;28;20076;-67
2022/07/01 08:05:34;;;;;;;3.72;1.25;;;;;;;17.89;100.00;101620.31;5211207;28;20033;-65
2022/07/01 08:08:06;;;;;;;4.05;1.30;;;;;;;18.06;100.00;101621.19;5212200;28;20037;-69
2022/07/01 08:10:37;;;;;;;3.13;1.10;;;;;;;18.34;100.00;101630.59;5212407;28;20029;-68
2022/07/01 08:13:08;;;;;;;7.38;1.30;;;;;;;18.27;100.00;101636.69;5214604;28;20383;-68
2022/07/01 08:15:41;;;;;;;5.55;1.30;;;;;;;18.42;100.00;101640.38;5211800;28;20029;-69
2022/07/01 08:18:13;;;;;;;;;;;;;;;19.04;100.00;101638.16;5211115;28;20490;-69
2022/07/01 08:20:44;;;;;;;3.97;1.20;;;;;;;18.62;100.00;101648.88;5209846;28;19971;-69
2022/07/01 08:23:20;;;;;;;4.75;1.10;;;;;;;18.93;100.00;101641.97;5211797;28;20366;-69
2022/07/01 08:25:51;;;;;;;2.47;0.70;;;;;;;18.85;100.00;101649.94;5211725;28;20018;-69
2022/07/01 08:28:22;;;;;;;4.35;1.35;;;;;;;18.91;100.00;101654.59;5212412;28;20128;-69
2022/07/01 08:30:53;;;;;;;1.90;0.77;;;;;;;19.00;100.00;101666.03;5211912;28;20057;-69
2022/07/01 08:33:25;;;;;;;5.70;1.60;;;;;;;19.18;100.00;101655.25;5214046;28;20041;-68
2022/07/01 08:35:56;;;;;;;2.63;1.10;;;;;;;19.17;100.00;101650.94;5213725;28;20038;-69
2022/07/01 08:38:28;;;;;;;3.37;0.90;;;;;;;19.23;100.00;101650.28;5211200;28;20045;-68
2022/07/01 08:41:01;;;;;;;5.60;1.40;;;;;;;19.25;100.00;101666.06;5217147;28;20040;-69
2022/07/01 08:43:34;;;;;;;3.65;1.10;;;;;;;19.35;100.00;101656.88;5216100;28;20037;-69
2022/07/01 08:46:07;;;;;;;2.28;1.10;;;;;;;19.28;100.00;101666.56;5215959;28;20026;-68
2022/07/01 08:48:45;;;;;;;3.05;1.17;;;;;;;19.42;100.00;101675.66;5212147;28;20125;-68
2022/07/01 08:51:16;;;;;;;2.95;1.25;;;;;;;19.53;100.00;101672.66;5216911;28;20049;-68
2022/07/01 08:53:47;;;;;;;4.33;1.10;;;;;;;19.60;100.00;101681.63;5215120;28;20026;-69
2022/07/01 08:59:20;;;;;;;3.00;1.15;;;;;;;19.71;100.00;101693.75;5215357;28;20113;-66
2022/07/01 09:02:00;;;;;;;3.17;1.20;;;;;;;19.57;100.00;101697.91;5213047;28;20095;-68
2022/07/01 09:04:33;;;;;;;6.60;1.75;;;;;;;19.45;100.00;101700.06;5213570;28;20022;-67
2022/07/01 09:07:06;;;;;;;3.65;1.65;;;;;;;19.49;100.00;101689.94;5214151;28;20092;-68
2022/07/01 09:09:40;;;;;;;4.10;1.35;;;;;;;19.44;100.00;101698.41;5213216;28;20105;-68
2022/07/01 09:12:11;;;;;;;3.00;1.30;;;;;;;19.57;100.00;101697.91;5215175;28;20033;-69
2022/07/01 09:14:43;;;;;;;3.50;1.50;;;;;;;19.43;100.00;101696.78;5211227;28;20026;-69
2022/07/01 09:17:20;;;;;;;2.67;1.17;;;;;;;19.42;100.00;101684.47;5216480;28;20053;-69
2022/07/01 09:19:51;;;;;;;4.03;1.17;;;;;;;19.27;100.00;101680.00;5216712;28;20025;-68
2022/07/01 09:22:23;;;;;;;4.33;1.30;;;;;;;19.30;100.00;101679.66;5215761;28;20038;-69
2022/07/01 09:24:54;;;;;;;4.00;1.30;;;;;;;19.72;100.00;101679.47;5216620;28;20109;-69
2022/07/01 09:27:26;;;;;;;3.93;1.20;;;;;;;19.71;100.00;101684.97;5216113;28;20084;-69
2022/07/01 09:29:58;;;;;;;5.23;1.17;;;;;;;19.74;100.00;101684.63;5211680;28;20029;-69
2022/07/01 09:32:29;;;;;;;6.35;1.77;;;;;;;19.59;100.00;101692.44;5214817;28;20030;-70
2022/07/01 09:35:00;;;;;;;2.83;0.87;;;;;;;19.36;100.00;101700.25;5216786;28;20022;-68
2022/07/01 09:37:34;;;;;;;3.53;1.23;;;;;;;19.45;100.00;101705.38;5216294;28;20132;-68
2022/07/01 09:40:06;;;;;;;3.30;1.20;;;;;;;19.65;100.00;101703.22;5215912;28;20038;-69
2022/07/01 09:42:44;;;;;;;4.93;1.40;;;;;;;20.00;100.00;101698.53;5213790;28;20042;-68
2022/07/01 09:45:16;;;;;;;4.47;1.48;;;;;;;19.83;100.00;101696.88;5215237;28;20040;-70
2022/07/01 09:47:48;;;;;;;3.30;1.60;;;;;;;19.74;100.00;101695.25;5213921;28;20406;-68
2022/07/01 09:50:19;;;;;;;6.20;1.37;;;;;;;19.92;100.00;101702.00;5216979;28;20772;-69
2022/07/01 09:52:50;;;;;;;8.90;1.50;;;;;;;20.30;100.00;101704.84;5215922;28;20099;-68
2022/07/01 09:55:21;;;;;;;4.30;1.40;;;;;;;20.54;100.00;101706.63;5216397;28;20057;-69
2022/07/01 09:57:53;;;;;;;3.03;1.20;;;;;;;20.65;100.00;101706.22;5216081;28;20407;-67
2022/07/01 10:00:25;;;;;;;4.37;1.13;;;;;;;20.92;100.00;101704.06;5215417;28;20042;-69
2022/07/01 10:02:57;;;;;;;2.85;0.95;;;;;;;20.73;100.00;101708.00;5215802;28;20026;-69
2022/07/01 10:05:31;;;;;;;2.93;0.97;;;;;;;20.99;100.00;101702.34;5215124;28;20029;-69
2022/07/01 10:08:42;;;;;;;3.15;1.05;;;;;;;21.54;100.00;101711.06;5215095;28;20038;-69
2022/07/01 10:11:19;;;;;;;3.30;0.90;;;;;;;21.68;100.00;101712.13;5213621;28;20406;-68
2022/07/01 10:13:52;;;;;;;3.72;0.85;;;;;;;21.56;100.00;101720.56;5216356;28;20060;-69
2022/07/01 10:16:23;;;;;;;3.83;1.20;;;;;;;21.76;100.00;101720.03;5216000;28;20036;-69
2022/07/01 10:18:55;;;;;;;3.77;1.17;;;;;;;21.96;100.00;101717.66;5215969;28;20503;-69
2022/07/01 10:21:28;;;;;;;2.60;0.80;;;;;;;21.84;100.00;101730.63;5214395;28;20028;-69
2022/07/01 10:24:15;;;;;;;2.25;0.93;;;;;;;21.83;100.00;101729.78;5215318;28;20272;-69
2022/07/01 10:26:47;;;;;;;3.20;0.90;;;;;;;21.95;100.00;101732.84;5215850;28;20112;-69
2022/07/01 10:29:34;;;;;;;5.47;1.00;;;;;;;22.24;100.00;101733.88;5214917;28;20553;-66
2022/07/01 10:32:25;;;;;;;2.53;0.90;;;;;;;22.16;100.00;101728.63;5211483;28;20026;-69
2022/07/01 10:35:05;;;;;;;3.50;0.95;;;;;;;22.09;100.00;101742.69;5215541;28;20053;-66
2022/07/01 10:37:57;;;;;;;4.38;1.17;;;;;;;22.08;100.00;101742.84;5214061;28;20379;-69
2022/07/01 10:40:46;;;;;;;3.22;0.85;;;;;;;22.02;100.00;101733.75;5210543;28;20129;-69
2022/07/01 10:43:32;;;;;;;3.75;1.50;;;;;;;22.57;100.00;101737.78;5213983;28;20038;-69
2022/07/01 10:46:04;;;;;;;2.80;0.93;;;;;;;22.57;100.00;101732.44;5215319;28;20497;-69
2022/07/01 10:48:36;;;;;;;3.22;0.90;;;;;;;22.29;100.00;101737.63;5213829;28;20073;-68
2022/07/01 10:51:07;;;;;;;2.77;0.90;;;;;;;22.48;100.00;101730.91;5215273;28;20506;-68
2022/07/01 10:53:49;;;;;;;4.17;1.10;;;;;;;22.93;100.00;101728.13;5214430;28;20724;-70
2022/07/01 10:56:38;;;;;;;4.13;1.10;;;;;;;23.15;100.00;101737.81;5213750;28;20037;-66
2022/07/01 10:59:18;;;;;;;4.47;0.95;;;;;;;22.57;99.49;101729.75;5214352;28;20117;-68
2022/07/01 11:01:50;;;;;;;3.42;0.98;;;;;;;21.98;90.91;101729.81;5215540;28;20390;-68
2022/07/01 11:04:21;;;;;;;4.17;1.07;;;;;;;22.11;91.08;101727.31;5214873;28;20022;-66
2022/07/01 11:06:52;;;;;;;2.87;0.83;;;;;;;22.36;94.52;101735.06;5215269;28;20057;-69
2022/07/01 11:09:23;;;;;;;3.33;0.93;;;;;;;22.56;94.83;101721.94;5213589;28;20029;-67
2022/07/01 11:11:55;;;;;;;2.87;0.93;;;;;;;22.52;96.46;101726.84;5213839;28;20509;-69
2022/07/01 11:14:34;;;;;;;2.83;1.10;;;;;;;22.97;93.60;101713.38;5209053;28;20474;-66
2022/07/01 11:17:08;;;;;;;3.03;0.88;;;;;;;23.29;95.50;101717.34;5209030;28;20025;-69
2022/07/01 11:19:39;;;;;;;3.50;1.30;;;;;;;23.51;90.99;101708.28;5212343;28;20151;-69
2022/07/01 11:22:10;;;;;;;4.23;1.30;;;;;;;23.70;88.38;101719.34;5212173;28;20112;-69
2022/07/01 11:24:41;;;;;;;4.40;0.77;;;;;;;23.62;86.50;101708.78;5213559;28;20407;-69
2022/07/01 11:27:13;;;;;;;3.53;0.83;;;;;;;23.54;82.63;101707.06;5213180;28;20513;-69
2022/07/01 11:29:45;;;;;;;2.80;0.80;;;;;;;23.67;85.45;101709.03;5214651;28;20057;-69
2022/07/01 11:32:27;;;;;;;4.67;0.90;;;;;;;23.85;83.94;101713.88;5213846;28;20032;-66
2022/07/01 11:35:00;;;;;;;3.30;1.00;;;;;;;23.81;84.69;101710.78;5210617;28;20033;-69
2022/07/01 11:40:21;;;;;;;3.55;0.80;;;;;;;23.79;75.40;101704.81;5236738;23;20054;-68
2022/07/01 11:42:53;;;;;;;3.90;1.10;;;;;;;23.84;73.51;101709.56;5206750;28;20037;-71
2022/07/01 11:45:26;;;;;;;2.23;0.60;;;;;;;23.57;67.33;101706.69;5211629;28;20029;-70
2022/07/01 11:47:57;;;;;;;3.65;0.88;;;;;;;23.13;65.41;101699.75;5212634;28;20065;-70